Terminal Aerodrome Forecast
Issued by NWS

Home | Current Version | Previous Version | Text Only | Print | Product List | Glossary On
Versions: 1 2 3 4 5 6 7 8 9 10 11 12 13 14 15 16 17 18 19 20 21 22 23 24
000
FTUS46 KOTX 202335
TAFMWH
TAF
KMWH 202335Z 2100/2124 23012G20KT P6SM FEW100
     FM210600 28004KT P6SM SKC
     FM211500 15004KT P6SM FEW070
     FM212100 22008KT P6SM FEW080 SCT120=

USA.gov is the U.S. government's official web portal to all federal, state and local government web resources and services.